sensor_id;sensor_type;location;lat;lon;timestamp;P1;durP1;ratioP1;P2;durP2;ratioP2
8993;SDS011;4532;50.886;4.700;2023-05-10T00:00:40;6.72;;;5.05;;
8993;SDS011;4532;50.886;4.700;2023-05-10T00:03:10;7.35;;;5.15;;
8993;SDS011;4532;50.886;4.700;2023-05-10T00:05:37;7.40;;;5.43;;
8993;SDS011;4532;50.886;4.700;2023-05-10T00:08:07;5.78;;;4.85;;
8993;SDS011;4532;50.886;4.700;2023-05-10T00:10:36;8.00;;;5.03;;
8993;SDS011;4532;50.886;4.700;2023-05-10T00:13:06;8.77;;;5.43;;
8993;SDS011;4532;50.886;4.700;2023-05-10T00:15:35;6.85;;;4.90;;
8993;SDS011;4532;50.886;4.700;2023-05-10T00:18:03;8.00;;;4.93;;
8993;SDS011;4532;50.886;4.700;2023-05-10T00:20:32;7.72;;;5.07;;
8993;SDS011;4532;50.886;4.700;2023-05-10T00:22:59;9.23;;;5.57;;
8993;SDS011;4532;50.886;4.700;2023-05-10T00:25:28;9.43;;;5.38;;
8993;SDS011;4532;50.886;4.700;2023-05-10T00:27:58;7.78;;;5.22;;
8993;SDS011;4532;50.886;4.700;2023-05-10T00:30:27;10.00;;;5.80;;
8993;SDS011;4532;50.886;4.700;2023-05-10T00:32:57;7.15;;;5.53;;
8993;SDS011;4532;50.886;4.700;2023-05-10T00:35:24;7.13;;;5.10;;
8993;SDS011;4532;50.886;4.700;2023-05-10T00:37:56;7.78;;;5.03;;
8993;SDS011;4532;50.886;4.700;2023-05-10T00:40:23;11.00;;;5.75;;
8993;SDS011;4532;50.886;4.700;2023-05-10T00:42:53;8.07;;;5.73;;
8993;SDS011;4532;50.886;4.700;2023-05-10T00:45:20;8.37;;;5.87;;
8993;SDS011;4532;50.886;4.700;2023-05-10T00:47:47;9.83;;;6.03;;
8993;SDS011;4532;50.886;4.700;2023-05-10T00:50:18;9.43;;;5.77;;
8993;SDS011;4532;50.886;4.700;2023-05-10T00:52:47;7.65;;;5.57;;
8993;SDS011;4532;50.886;4.700;2023-05-10T00:55:18;7.20;;;5.73;;
8993;SDS011;4532;50.886;4.700;2023-05-10T00:57:50;10.07;;;6.30;;
8993;SDS011;4532;50.886;4.700;2023-05-10T01:00:20;9.32;;;6.40;;
8993;SDS011;4532;50.886;4.700;2023-05-10T01:02:48;8.35;;;6.43;;
8993;SDS011;4532;50.886;4.700;2023-05-10T01:05:18;10.25;;;6.68;;
8993;SDS011;4532;50.886;4.700;2023-05-10T01:07:46;7.93;;;5.70;;
8993;SDS011;4532;50.886;4.700;2023-05-10T01:10:14;7.30;;;5.77;;
8993;SDS011;4532;50.886;4.700;2023-05-10T01:12:45;9.40;;;6.27;;
8993;SDS011;4532;50.886;4.700;2023-05-10T01:15:16;9.80;;;6.37;;
8993;SDS011;4532;50.886;4.700;2023-05-10T01:17:47;11.15;;;6.75;;
8993;SDS011;4532;50.886;4.700;2023-05-10T01:20:17;9.03;;;5.80;;
8993;SDS011;4532;50.886;4.700;2023-05-10T01:23:01;11.57;;;6.60;;
8993;SDS011;4532;50.886;4.700;2023-05-10T01:31:30;8.15;;;6.50;;
8993;SDS011;4532;50.886;4.700;2023-05-10T01:34:20;11.97;;;6.93;;
8993;SDS011;4532;50.886;4.700;2023-05-10T01:36:58;9.00;;;6.20;;
8993;SDS011;4532;50.886;4.700;2023-05-10T01:39:49;12.57;;;7.57;;
8993;SDS011;4532;50.886;4.700;2023-05-10T01:42:40;10.43;;;7.43;;
8993;SDS011;4532;50.886;4.700;2023-05-10T01:45:21;12.77;;;7.53;;
8993;SDS011;4532;50.886;4.700;2023-05-10T01:48:13;11.77;;;7.20;;
8993;SDS011;4532;50.886;4.700;2023-05-10T01:50:43;10.55;;;7.60;;
8993;SDS011;4532;50.886;4.700;2023-05-10T01:53:14;10.32;;;7.90;;
8993;SDS011;4532;50.886;4.700;2023-05-10T01:55:49;12.30;;;8.00;;
8993;SDS011;4532;50.886;4.700;2023-05-10T01:58:27;11.87;;;8.20;;
8993;SDS011;4532;50.886;4.700;2023-05-10T02:00:57;9.20;;;7.47;;
8993;SDS011;4532;50.886;4.700;2023-05-10T02:03:32;12.60;;;7.82;;
8993;SDS011;4532;50.886;4.700;2023-05-10T02:06:10;12.45;;;8.05;;
8993;SDS011;4532;50.886;4.700;2023-05-10T02:08:45;11.23;;;7.82;;
8993;SDS011;4532;50.886;4.700;2023-05-10T02:11:13;9.20;;;7.45;;
8993;SDS011;4532;50.886;4.700;2023-05-10T02:13:43;12.95;;;8.45;;
8993;SDS011;4532;50.886;4.700;2023-05-10T02:16:16;10.15;;;7.95;;
8993;SDS011;4532;50.886;4.700;2023-05-10T02:18:54;10.43;;;8.15;;
8993;SDS011;4532;50.886;4.700;2023-05-10T02:21:26;11.70;;;8.93;;
8993;SDS011;4532;50.886;4.700;2023-05-10T02:23:57;14.23;;;8.05;;
8993;SDS011;4532;50.886;4.700;2023-05-10T02:26:25;12.70;;;8.00;;
8993;SDS011;4532;50.886;4.700;2023-05-10T02:28:55;10.90;;;8.73;;
8993;SDS011;4532;50.886;4.700;2023-05-10T02:31:27;13.05;;;8.35;;
8993;SDS011;4532;50.886;4.700;2023-05-10T02:33:59;11.37;;;8.80;;
8993;SDS011;4532;50.886;4.700;2023-05-10T02:36:30;10.90;;;8.52;;
8993;SDS011;4532;50.886;4.700;2023-05-10T02:38:58;10.63;;;8.38;;
8993;SDS011;4532;50.886;4.700;2023-05-10T02:41:30;12.83;;;8.83;;
8993;SDS011;4532;50.886;4.700;2023-05-10T02:44:01;11.90;;;8.07;;
8993;SDS011;4532;50.886;4.700;2023-05-10T02:46:30;13.80;;;9.50;;
8993;SDS011;4532;50.886;4.700;2023-05-10T02:49:02;13.30;;;9.02;;
8993;SDS011;4532;50.886;4.700;2023-05-10T02:51:32;13.45;;;8.82;;
8993;SDS011;4532;50.886;4.700;2023-05-10T02:54:11;13.35;;;9.02;;
8993;SDS011;4532;50.886;4.700;2023-05-10T02:56:43;13.20;;;9.00;;
8993;SDS011;4532;50.886;4.700;2023-05-10T02:59:38;12.27;;;9.13;;
8993;SDS011;4532;50.886;4.700;2023-05-10T03:02:05;12.15;;;9.27;;
8993;SDS011;4532;50.886;4.700;2023-05-10T03:04:35;10.68;;;8.80;;
8993;SDS011;4532;50.886;4.700;2023-05-10T03:07:04;12.15;;;9.85;;
8993;SDS011;4532;50.886;4.700;2023-05-10T03:09:34;13.77;;;9.63;;
8993;SDS011;4532;50.886;4.700;2023-05-10T03:18:06;11.80;;;9.32;;
8993;SDS011;4532;50.886;4.700;2023-05-10T03:20:42;12.40;;;8.73;;
8993;SDS011;4532;50.886;4.700;2023-05-10T03:23:35;11.87;;;8.63;;
8993;SDS011;4532;50.886;4.700;2023-05-10T03:26:07;12.32;;;8.98;;
8993;SDS011;4532;50.886;4.700;2023-05-10T03:28:35;12.95;;;9.13;;
8993;SDS011;4532;50.886;4.700;2023-05-10T03:31:05;13.18;;;9.50;;
8993;SDS011;4532;50.886;4.700;2023-05-10T03:33:33;12.65;;;9.13;;
8993;SDS011;4532;50.886;4.700;2023-05-10T03:36:03;14.25;;;9.50;;
8993;SDS011;4532;50.886;4.700;2023-05-10T03:38:33;12.63;;;9.30;;
8993;SDS011;4532;50.886;4.700;2023-05-10T03:41:02;13.03;;;8.90;;
8993;SDS011;4532;50.886;4.700;2023-05-10T03:43:29;10.70;;;7.47;;
8993;SDS011;4532;50.886;4.700;2023-05-10T03:45:58;9.30;;;6.60;;
8993;SDS011;4532;50.886;4.700;2023-05-10T03:48:28;9.00;;;7.20;;
8993;SDS011;4532;50.886;4.700;2023-05-10T03:50:55;9.75;;;7.03;;
8993;SDS011;4532;50.886;4.700;2023-05-10T03:53:24;9.17;;;6.40;;
8993;SDS011;4532;50.886;4.700;2023-05-10T03:55:56;8.95;;;7.13;;
8993;SDS011;4532;50.886;4.700;2023-05-10T03:58:26;8.35;;;6.28;;
8993;SDS011;4532;50.886;4.700;2023-05-10T04:00:57;9.63;;;6.97;;
8993;SDS011;4532;50.886;4.700;2023-05-10T04:03:27;10.47;;;8.00;;
8993;SDS011;4532;50.886;4.700;2023-05-10T04:06:03;11.00;;;8.63;;
8993;SDS011;4532;50.886;4.700;2023-05-10T04:08:30;14.00;;;9.98;;
8993;SDS011;4532;50.886;4.700;2023-05-10T04:13:36;14.63;;;11.17;;
8993;SDS011;4532;50.886;4.700;2023-05-10T04:16:07;16.83;;;12.20;;
8993;SDS011;4532;50.886;4.700;2023-05-10T04:18:36;16.60;;;12.52;;
8993;SDS011;4532;50.886;4.700;2023-05-10T04:21:12;14.73;;;11.73;;
8993;SDS011;4532;50.886;4.700;2023-05-10T04:23:40;16.60;;;12.00;;
8993;SDS011;4532;50.886;4.700;2023-05-10T04:26:12;16.27;;;12.77;;
8993;SDS011;4532;50.886;4.700;2023-05-10T04:28:40;17.80;;;13.17;;
8993;SDS011;4532;50.886;4.700;2023-05-10T04:31:09;16.05;;;12.15;;
8993;SDS011;4532;50.886;4.700;2023-05-10T04:33:42;16.30;;;13.07;;
8993;SDS011;4532;50.886;4.700;2023-05-10T04:36:09;19.47;;;13.03;;
8993;SDS011;4532;50.886;4.700;2023-05-10T04:38:40;17.92;;;13.20;;
8993;SDS011;4532;50.886;4.700;2023-05-10T04:41:12;16.53;;;12.93;;
8993;SDS011;4532;50.886;4.700;2023-05-10T04:43:43;18.77;;;13.33;;
8993;SDS011;4532;50.886;4.700;2023-05-10T04:46:10;16.37;;;12.60;;
8993;SDS011;4532;50.886;4.700;2023-05-10T04:48:37;15.53;;;12.23;;
8993;SDS011;4532;50.886;4.700;2023-05-10T04:51:07;17.40;;;13.05;;
8993;SDS011;4532;50.886;4.700;2023-05-10T04:53:34;16.30;;;13.37;;
8993;SDS011;4532;50.886;4.700;2023-05-10T04:56:04;19.40;;;13.60;;
8993;SDS011;4532;50.886;4.700;2023-05-10T04:58:31;16.10;;;12.50;;
8993;SDS011;4532;50.886;4.700;2023-05-10T05:01:05;18.10;;;13.60;;
8993;SDS011;4532;50.886;4.700;2023-05-10T05:03:37;16.95;;;13.98;;
8993;SDS011;4532;50.886;4.700;2023-05-10T05:06:06;17.90;;;14.53;;
8993;SDS011;4532;50.886;4.700;2023-05-10T05:08:36;18.77;;;14.30;;
8993;SDS011;4532;50.886;4.700;2023-05-10T05:11:06;16.30;;;13.07;;
8993;SDS011;4532;50.886;4.700;2023-05-10T05:13:33;17.23;;;12.52;;
8993;SDS011;4532;50.886;4.700;2023-05-10T05:16:02;19.92;;;14.20;;
8993;SDS011;4532;50.886;4.700;2023-05-10T05:18:29;20.35;;;15.00;;
8993;SDS011;4532;50.886;4.700;2023-05-10T05:20:56;21.70;;;15.50;;
8993;SDS011;4532;50.886;4.700;2023-05-10T05:23:26;19.30;;;14.37;;
8993;SDS011;4532;50.886;4.700;2023-05-10T05:25:56;20.00;;;14.60;;
8993;SDS011;4532;50.886;4.700;2023-05-10T05:28:28;18.60;;;15.40;;
8993;SDS011;4532;50.886;4.700;2023-05-10T05:30:59;20.13;;;14.80;;
8993;SDS011;4532;50.886;4.700;2023-05-10T05:33:28;19.47;;;15.53;;
8993;SDS011;4532;50.886;4.700;2023-05-10T05:35:59;18.60;;;15.73;;
8993;SDS011;4532;50.886;4.700;2023-05-10T05:38:30;20.10;;;16.10;;
8993;SDS011;4532;50.886;4.700;2023-05-10T05:41:00;20.30;;;16.58;;
8993;SDS011;4532;50.886;4.700;2023-05-10T05:43:29;24.00;;;15.13;;
8993;SDS011;4532;50.886;4.700;2023-05-10T05:45:58;19.58;;;16.00;;
8993;SDS011;4532;50.886;4.700;2023-05-10T05:48:26;22.87;;;17.13;;
8993;SDS011;4532;50.886;4.700;2023-05-10T05:50:56;19.97;;;16.33;;
8993;SDS011;4532;50.886;4.700;2023-05-10T05:53:24;19.87;;;15.50;;
8993;SDS011;4532;50.886;4.700;2023-05-10T05:55:54;20.88;;;16.48;;
8993;SDS011;4532;50.886;4.700;2023-05-10T05:58:22;23.00;;;16.90;;
8993;SDS011;4532;50.886;4.700;2023-05-10T06:00:50;21.35;;;15.27;;
8993;SDS011;4532;50.886;4.700;2023-05-10T06:03:23;17.60;;;15.15;;
8993;SDS011;4532;50.886;4.700;2023-05-10T06:05:55;25.38;;;16.48;;
8993;SDS011;4532;50.886;4.700;2023-05-10T06:08:23;24.00;;;16.60;;
8993;SDS011;4532;50.886;4.700;2023-05-10T06:10:54;28.20;;;17.20;;
8993;SDS011;4532;50.886;4.700;2023-05-10T06:13:23;25.20;;;15.03;;
8993;SDS011;4532;50.886;4.700;2023-05-10T06:15:57;33.43;;;17.60;;
8993;SDS011;4532;50.886;4.700;2023-05-10T06:18:25;32.27;;;17.30;;
8993;SDS011;4532;50.886;4.700;2023-05-10T06:20:52;21.87;;;15.70;;
8993;SDS011;4532;50.886;4.700;2023-05-10T06:23:26;21.00;;;16.70;;
8993;SDS011;4532;50.886;4.700;2023-05-10T06:25:58;20.13;;;15.80;;
8993;SDS011;4532;50.886;4.700;2023-05-10T06:28:25;20.27;;;16.53;;
8993;SDS011;4532;50.886;4.700;2023-05-10T06:30:53;20.07;;;16.87;;
8993;SDS011;4532;50.886;4.700;2023-05-10T06:33:25;21.03;;;17.23;;
8993;SDS011;4532;50.886;4.700;2023-05-10T06:35:52;21.23;;;16.73;;
8993;SDS011;4532;50.886;4.700;2023-05-10T06:38:19;20.97;;;16.20;;
8993;SDS011;4532;50.886;4.700;2023-05-10T06:40:51;20.77;;;15.90;;
8993;SDS011;4532;50.886;4.700;2023-05-10T06:43:18;18.75;;;15.40;;
8993;SDS011;4532;50.886;4.700;2023-05-10T06:45:47;21.85;;;16.88;;
8993;SDS011;4532;50.886;4.700;2023-05-10T06:48:15;19.63;;;15.70;;
8993;SDS011;4532;50.886;4.700;2023-05-10T06:50:44;18.17;;;15.03;;
8993;SDS011;4532;50.886;4.700;2023-05-10T06:53:11;22.53;;;17.07;;
8993;SDS011;4532;50.886;4.700;2023-05-10T06:55:41;20.40;;;15.70;;
8993;SDS011;4532;50.886;4.700;2023-05-10T06:58:08;19.73;;;15.63;;
8993;SDS011;4532;50.886;4.700;2023-05-10T07:00:36;20.97;;;14.73;;
8993;SDS011;4532;50.886;4.700;2023-05-10T07:03:09;16.40;;;13.10;;
8993;SDS011;4532;50.886;4.700;2023-05-10T07:05:39;20.23;;;13.47;;
8993;SDS011;4532;50.886;4.700;2023-05-10T07:08:06;13.77;;;10.83;;
8993;SDS011;4532;50.886;4.700;2023-05-10T07:10:35;7.67;;;6.47;;
8993;SDS011;4532;50.886;4.700;2023-05-10T07:13:07;6.63;;;5.60;;
8993;SDS011;4532;50.886;4.700;2023-05-10T07:20:12;9.50;;;6.47;;
8993;SDS011;4532;50.886;4.700;2023-05-10T07:22:42;12.23;;;7.00;;
8993;SDS011;4532;50.886;4.700;2023-05-10T07:25:11;12.10;;;6.70;;
8993;SDS011;4532;50.886;4.700;2023-05-10T07:27:41;6.43;;;5.73;;
8993;SDS011;4532;50.886;4.700;2023-05-10T07:30:08;9.00;;;6.00;;
8993;SDS011;4532;50.886;4.700;2023-05-10T07:32:36;6.73;;;5.83;;
8993;SDS011;4532;50.886;4.700;2023-05-10T07:35:03;7.30;;;5.70;;
8993;SDS011;4532;50.886;4.700;2023-05-10T07:37:33;8.37;;;5.60;;
8993;SDS011;4532;50.886;4.700;2023-05-10T07:40:05;10.03;;;5.90;;
8993;SDS011;4532;50.886;4.700;2023-05-10T07:42:35;6.17;;;4.47;;
8993;SDS011;4532;50.886;4.700;2023-05-10T07:45:02;8.83;;;4.23;;
8993;SDS011;4532;50.886;4.700;2023-05-10T07:47:32;4.70;;;3.20;;
8993;SDS011;4532;50.886;4.700;2023-05-10T07:50:01;5.27;;;3.73;;
8993;SDS011;4532;50.886;4.700;2023-05-10T07:52:31;4.30;;;3.40;;
8993;SDS011;4532;50.886;4.700;2023-05-10T07:54:58;8.20;;;4.50;;
8993;SDS011;4532;50.886;4.700;2023-05-10T07:57:28;6.60;;;4.60;;
8993;SDS011;4532;50.886;4.700;2023-05-10T07:59:57;4.68;;;4.07;;
8993;SDS011;4532;50.886;4.700;2023-05-10T08:02:24;9.67;;;6.63;;
8993;SDS011;4532;50.886;4.700;2023-05-10T08:04:51;9.87;;;6.60;;
8993;SDS011;4532;50.886;4.700;2023-05-10T08:07:24;17.07;;;8.23;;
8993;SDS011;4532;50.886;4.700;2023-05-10T08:09:54;11.13;;;7.63;;
8993;SDS011;4532;50.886;4.700;2023-05-10T08:12:21;13.60;;;9.33;;
8993;SDS011;4532;50.886;4.700;2023-05-10T08:14:48;14.67;;;9.03;;
8993;SDS011;4532;50.886;4.700;2023-05-10T08:17:18;17.97;;;10.40;;
8993;SDS011;4532;50.886;4.700;2023-05-10T08:19:50;14.40;;;9.83;;
8993;SDS011;4532;50.886;4.700;2023-05-10T08:22:19;15.87;;;9.77;;
8993;SDS011;4532;50.886;4.700;2023-05-10T08:24:49;13.67;;;10.03;;
8993;SDS011;4532;50.886;4.700;2023-05-10T08:27:18;12.95;;;9.23;;
8993;SDS011;4532;50.886;4.700;2023-05-10T08:29:45;13.88;;;8.98;;
8993;SDS011;4532;50.886;4.700;2023-05-10T08:32:18;12.73;;;8.03;;
8993;SDS011;4532;50.886;4.700;2023-05-10T08:34:50;17.03;;;8.73;;
8993;SDS011;4532;50.886;4.700;2023-05-10T08:37:19;10.48;;;7.60;;
8993;SDS011;4532;50.886;4.700;2023-05-10T08:39:46;10.32;;;7.97;;
8993;SDS011;4532;50.886;4.700;2023-05-10T08:42:15;14.10;;;8.70;;
8993;SDS011;4532;50.886;4.700;2023-05-10T08:44:47;13.05;;;8.50;;
8993;SDS011;4532;50.886;4.700;2023-05-10T08:47:20;12.75;;;8.63;;
8993;SDS011;4532;50.886;4.700;2023-05-10T08:49:48;9.33;;;7.07;;
8993;SDS011;4532;50.886;4.700;2023-05-10T08:52:22;11.00;;;8.13;;
8993;SDS011;4532;50.886;4.700;2023-05-10T08:54:55;10.43;;;7.67;;
8993;SDS011;4532;50.886;4.700;2023-05-10T08:57:23;12.00;;;7.65;;
8993;SDS011;4532;50.886;4.700;2023-05-10T08:59:50;10.88;;;8.25;;
8993;SDS011;4532;50.886;4.700;2023-05-10T09:02:18;9.90;;;6.93;;
8993;SDS011;4532;50.886;4.700;2023-05-10T09:04:48;14.02;;;7.93;;
8993;SDS011;4532;50.886;4.700;2023-05-10T09:07:19;16.53;;;8.40;;
8993;SDS011;4532;50.886;4.700;2023-05-10T09:09:54;9.95;;;6.30;;
8993;SDS011;4532;50.886;4.700;2023-05-10T09:12:22;10.60;;;7.47;;
8993;SDS011;4532;50.886;4.700;2023-05-10T09:14:52;10.40;;;7.33;;
8993;SDS011;4532;50.886;4.700;2023-05-10T09:17:24;10.35;;;7.07;;
8993;SDS011;4532;50.886;4.700;2023-05-10T09:20:03;9.30;;;6.47;;
8993;SDS011;4532;50.886;4.700;2023-05-10T09:22:33;9.90;;;7.30;;
8993;SDS011;4532;50.886;4.700;2023-05-10T09:25:10;9.90;;;6.57;;
8993;SDS011;4532;50.886;4.700;2023-05-10T09:27:47;9.50;;;6.83;;
8993;SDS011;4532;50.886;4.700;2023-05-10T09:30:24;8.90;;;6.60;;
8993;SDS011;4532;50.886;4.700;2023-05-10T09:32:56;9.68;;;6.57;;
8993;SDS011;4532;50.886;4.700;2023-05-10T09:35:25;7.30;;;5.93;;
8993;SDS011;4532;50.886;4.700;2023-05-10T09:37:59;8.20;;;5.73;;
8993;SDS011;4532;50.886;4.700;2023-05-10T09:40:31;9.75;;;5.63;;
8993;SDS011;4532;50.886;4.700;2023-05-10T09:43:00;7.13;;;5.20;;
8993;SDS011;4532;50.886;4.700;2023-05-10T09:45:29;7.90;;;5.60;;
8993;SDS011;4532;50.886;4.700;2023-05-10T09:47:57;6.97;;;4.93;;
8993;SDS011;4532;50.886;4.700;2023-05-10T09:50:29;5.90;;;4.90;;
8993;SDS011;4532;50.886;4.700;2023-05-10T09:53:02;7.57;;;4.77;;
8993;SDS011;4532;50.886;4.700;2023-05-10T09:58:11;6.28;;;5.20;;
8993;SDS011;4532;50.886;4.700;2023-05-10T10:00:42;6.10;;;5.13;;
8993;SDS011;4532;50.886;4.700;2023-05-10T10:03:14;8.20;;;4.85;;
8993;SDS011;4532;50.886;4.700;2023-05-10T10:05:47;5.73;;;4.40;;
8993;SDS011;4532;50.886;4.700;2023-05-10T10:08:19;5.30;;;4.53;;
8993;SDS011;4532;50.886;4.700;2023-05-10T10:10:49;5.13;;;4.10;;
8993;SDS011;4532;50.886;4.700;2023-05-10T10:13:16;4.75;;;3.30;;
8993;SDS011;4532;50.886;4.700;2023-05-10T10:15:46;3.97;;;3.23;;
8993;SDS011;4532;50.886;4.700;2023-05-10T10:18:18;4.93;;;3.30;;
8993;SDS011;4532;50.886;4.700;2023-05-10T10:20:52;3.47;;;3.17;;
8993;SDS011;4532;50.886;4.700;2023-05-10T10:23:23;4.03;;;2.70;;
8993;SDS011;4532;50.886;4.700;2023-05-10T10:25:52;3.15;;;2.85;;
8993;SDS011;4532;50.886;4.700;2023-05-10T10:28:24;4.23;;;3.17;;
8993;SDS011;4532;50.886;4.700;2023-05-10T10:30:54;4.43;;;2.40;;
8993;SDS011;4532;50.886;4.700;2023-05-10T10:36:23;3.83;;;2.95;;
8993;SDS011;4532;50.886;4.700;2023-05-10T10:55:03;3.13;;;2.38;;
8993;SDS011;4532;50.886;4.700;2023-05-10T11:00:25;1.67;;;1.57;;
8993;SDS011;4532;50.886;4.700;2023-05-10T11:05:46;2.13;;;1.50;;
8993;SDS011;4532;50.886;4.700;2023-05-10T11:10:53;1.60;;;1.40;;
8993;SDS011;4532;50.886;4.700;2023-05-10T11:16:12;2.20;;;1.60;;
8993;SDS011;4532;50.886;4.700;2023-05-10T11:19:06;1.83;;;1.70;;
8993;SDS011;4532;50.886;4.700;2023-05-10T11:21:44;2.47;;;1.17;;
8993;SDS011;4532;50.886;4.700;2023-05-10T11:24:26;2.47;;;1.20;;
8993;SDS011;4532;50.886;4.700;2023-05-10T11:26:54;2.10;;;1.33;;
8993;SDS011;4532;50.886;4.700;2023-05-10T11:29:22;1.60;;;1.30;;
8993;SDS011;4532;50.886;4.700;2023-05-10T11:31:56;1.20;;;1.10;;
8993;SDS011;4532;50.886;4.700;2023-05-10T11:34:31;5.78;;;1.20;;
8993;SDS011;4532;50.886;4.700;2023-05-10T11:37:01;1.93;;;1.07;;
8993;SDS011;4532;50.886;4.700;2023-05-10T11:39:32;1.50;;;1.40;;
8993;SDS011;4532;50.886;4.700;2023-05-10T11:42:00;1.00;;;0.90;;
8993;SDS011;4532;50.886;4.700;2023-05-10T11:44:30;1.90;;;1.25;;
8993;SDS011;4532;50.886;4.700;2023-05-10T11:46:59;2.30;;;1.25;;
8993;SDS011;4532;50.886;4.700;2023-05-10T11:49:31;2.08;;;1.20;;
8993;SDS011;4532;50.886;4.700;2023-05-10T11:52:05;1.55;;;1.10;;
8993;SDS011;4532;50.886;4.700;2023-05-10T11:54:37;1.23;;;1.08;;
8993;SDS011;4532;50.886;4.700;2023-05-10T11:57:11;1.38;;;1.13;;
8993;SDS011;4532;50.886;4.700;2023-05-10T11:59:38;1.67;;;1.58;;
8993;SDS011;4532;50.886;4.700;2023-05-10T12:02:08;1.75;;;1.65;;
8993;SDS011;4532;50.886;4.700;2023-05-10T12:04:36;5.15;;;1.50;;
8993;SDS011;4532;50.886;4.700;2023-05-10T12:07:06;2.08;;;1.75;;
8993;SDS011;4532;50.886;4.700;2023-05-10T12:09:35;2.22;;;2.03;;
8993;SDS011;4532;50.886;4.700;2023-05-10T12:12:17;5.18;;;2.40;;
8993;SDS011;4532;50.886;4.700;2023-05-10T12:14:50;2.65;;;2.05;;
8993;SDS011;4532;50.886;4.700;2023-05-10T12:17:26;2.45;;;1.90;;
8993;SDS011;4532;50.886;4.700;2023-05-10T12:19:58;2.50;;;2.22;;
8993;SDS011;4532;50.886;4.700;2023-05-10T12:23:00;2.20;;;2.00;;
8993;SDS011;4532;50.886;4.700;2023-05-10T12:25:37;2.85;;;2.47;;
8993;SDS011;4532;50.886;4.700;2023-05-10T12:28:06;9.85;;;2.90;;
8993;SDS011;4532;50.886;4.700;2023-05-10T12:30:38;3.75;;;2.47;;
8993;SDS011;4532;50.886;4.700;2023-05-10T12:33:12;5.70;;;2.97;;
8993;SDS011;4532;50.886;4.700;2023-05-10T12:35:46;3.35;;;2.70;;
8993;SDS011;4532;50.886;4.700;2023-05-10T12:41:05;4.63;;;2.58;;
8993;SDS011;4532;50.886;4.700;2023-05-10T12:43:39;3.08;;;2.67;;
8993;SDS011;4532;50.886;4.700;2023-05-10T12:48:37;3.05;;;2.63;;
8993;SDS011;4532;50.886;4.700;2023-05-10T12:51:08;2.70;;;2.50;;
8993;SDS011;4532;50.886;4.700;2023-05-10T12:53:46;4.75;;;2.67;;
8993;SDS011;4532;50.886;4.700;2023-05-10T12:56:15;3.75;;;2.40;;
8993;SDS011;4532;50.886;4.700;2023-05-10T12:58:44;4.32;;;2.60;;
8993;SDS011;4532;50.886;4.700;2023-05-10T13:01:16;3.63;;;2.30;;
8993;SDS011;4532;50.886;4.700;2023-05-10T13:03:44;3.30;;;1.65;;
8993;SDS011;4532;50.886;4.700;2023-05-10T13:06:12;4.28;;;2.38;;
8993;SDS011;4532;50.886;4.700;2023-05-10T13:08:42;3.45;;;2.40;;
8993;SDS011;4532;50.886;4.700;2023-05-10T13:11:09;4.88;;;2.13;;
8993;SDS011;4532;50.886;4.700;2023-05-10T13:13:43;2.50;;;2.30;;
8993;SDS011;4532;50.886;4.700;2023-05-10T13:16:12;5.60;;;2.42;;
8993;SDS011;4532;50.886;4.700;2023-05-10T13:18:45;2.60;;;2.10;;
8993;SDS011;4532;50.886;4.700;2023-05-10T13:21:14;5.07;;;2.80;;
8993;SDS011;4532;50.886;4.700;2023-05-10T13:23:43;2.72;;;2.50;;
8993;SDS011;4532;50.886;4.700;2023-05-10T13:26:11;4.53;;;2.80;;
8993;SDS011;4532;50.886;4.700;2023-05-10T13:28:43;3.78;;;2.60;;
8993;SDS011;4532;50.886;4.700;2023-05-10T13:31:10;2.78;;;2.58;;
8993;SDS011;4532;50.886;4.700;2023-05-10T13:33:42;3.00;;;2.47;;
8993;SDS011;4532;50.886;4.700;2023-05-10T13:36:12;4.07;;;2.25;;
8993;SDS011;4532;50.886;4.700;2023-05-10T13:38:41;3.53;;;2.45;;
8993;SDS011;4532;50.886;4.700;2023-05-10T13:41:09;2.35;;;2.20;;
8993;SDS011;4532;50.886;4.700;2023-05-10T13:43:39;3.78;;;2.08;;
8993;SDS011;4532;50.886;4.700;2023-05-10T13:46:06;3.17;;;2.53;;
8993;SDS011;4532;50.886;4.700;2023-05-10T13:48:38;3.78;;;2.45;;
8993;SDS011;4532;50.886;4.700;2023-05-10T13:51:06;2.63;;;2.13;;
8993;SDS011;4532;50.886;4.700;2023-05-10T13:53:35;2.13;;;1.95;;
8993;SDS011;4532;50.886;4.700;2023-05-10T13:56:03;2.03;;;1.83;;
8993;SDS011;4532;50.886;4.700;2023-05-10T13:58:30;2.03;;;1.83;;
8993;SDS011;4532;50.886;4.700;2023-05-10T14:00:57;2.15;;;2.00;;
8993;SDS011;4532;50.886;4.700;2023-05-10T14:03:26;2.13;;;1.92;;
8993;SDS011;4532;50.886;4.700;2023-05-10T14:05:56;2.50;;;2.15;;
8993;SDS011;4532;50.886;4.700;2023-05-10T14:08:25;2.50;;;1.90;;
8993;SDS011;4532;50.886;4.700;2023-05-10T14:10:56;2.45;;;2.10;;
8993;SDS011;4532;50.886;4.700;2023-05-10T14:13:25;3.58;;;3.00;;
8993;SDS011;4532;50.886;4.700;2023-05-10T14:15:55;3.47;;;2.08;;
8993;SDS011;4532;50.886;4.700;2023-05-10T14:18:23;3.25;;;2.35;;
8993;SDS011;4532;50.886;4.700;2023-05-10T14:20:50;3.00;;;2.25;;
8993;SDS011;4532;50.886;4.700;2023-05-10T14:23:17;5.78;;;3.03;;
8993;SDS011;4532;50.886;4.700;2023-05-10T14:25:51;3.28;;;2.58;;
8993;SDS011;4532;50.886;4.700;2023-05-10T14:28:22;2.80;;;2.25;;
8993;SDS011;4532;50.886;4.700;2023-05-10T14:30:55;4.45;;;2.45;;
8993;SDS011;4532;50.886;4.700;2023-05-10T14:33:22;2.70;;;2.30;;
8993;SDS011;4532;50.886;4.700;2023-05-10T14:35:51;2.88;;;2.42;;
8993;SDS011;4532;50.886;4.700;2023-05-10T14:38:23;6.03;;;2.70;;
8993;SDS011;4532;50.886;4.700;2023-05-10T14:40:50;3.70;;;3.38;;
8993;SDS011;4532;50.886;4.700;2023-05-10T14:43:17;3.70;;;3.40;;
8993;SDS011;4532;50.886;4.700;2023-05-10T14:45:49;4.25;;;3.22;;
8993;SDS011;4532;50.886;4.700;2023-05-10T14:48:19;3.65;;;3.33;;
8993;SDS011;4532;50.886;4.700;2023-05-10T14:50:48;5.40;;;3.65;;
8993;SDS011;4532;50.886;4.700;2023-05-10T14:53:19;3.88;;;3.55;;
8993;SDS011;4532;50.886;4.700;2023-05-10T14:55:46;4.60;;;3.45;;
8993;SDS011;4532;50.886;4.700;2023-05-10T14:58:15;3.90;;;3.40;;
8993;SDS011;4532;50.886;4.700;2023-05-10T15:00:42;7.13;;;3.80;;
8993;SDS011;4532;50.886;4.700;2023-05-10T15:03:10;5.03;;;3.40;;
8993;SDS011;4532;50.886;4.700;2023-05-10T15:05:38;3.35;;;3.05;;
8993;SDS011;4532;50.886;4.700;2023-05-10T15:08:12;4.63;;;2.90;;
8993;SDS011;4532;50.886;4.700;2023-05-10T15:10:41;6.40;;;3.78;;
8993;SDS011;4532;50.886;4.700;2023-05-10T15:13:08;5.88;;;3.90;;
8993;SDS011;4532;50.886;4.700;2023-05-10T15:15:40;5.90;;;4.07;;
8993;SDS011;4532;50.886;4.700;2023-05-10T15:18:09;6.40;;;3.78;;
8993;SDS011;4532;50.886;4.700;2023-05-10T15:20:39;5.47;;;4.32;;
8993;SDS011;4532;50.886;4.700;2023-05-10T15:23:09;7.00;;;5.43;;
8993;SDS011;4532;50.886;4.700;2023-05-10T15:25:38;9.10;;;6.30;;
8993;SDS011;4532;50.886;4.700;2023-05-10T15:28:06;7.78;;;6.20;;
8993;SDS011;4532;50.886;4.700;2023-05-10T15:30:35;9.18;;;6.93;;
8993;SDS011;4532;50.886;4.700;2023-05-10T15:33:07;9.02;;;7.15;;
8993;SDS011;4532;50.886;4.700;2023-05-10T15:35:35;8.27;;;6.85;;
8993;SDS011;4532;50.886;4.700;2023-05-10T15:38:04;9.23;;;7.88;;
8993;SDS011;4532;50.886;4.700;2023-05-10T15:40:32;7.75;;;6.65;;
8993;SDS011;4532;50.886;4.700;2023-05-10T15:43:04;7.63;;;6.13;;
8993;SDS011;4532;50.886;4.700;2023-05-10T15:45:31;9.20;;;7.45;;
8993;SDS011;4532;50.886;4.700;2023-05-10T15:48:05;10.70;;;8.45;;
8993;SDS011;4532;50.886;4.700;2023-05-10T15:50:35;9.27;;;7.65;;
8993;SDS011;4532;50.886;4.700;2023-05-10T15:53:04;13.23;;;8.02;;
8993;SDS011;4532;50.886;4.700;2023-05-10T15:55:31;10.35;;;7.68;;
8993;SDS011;4532;50.886;4.700;2023-05-10T15:58:01;8.00;;;6.40;;
8993;SDS011;4532;50.886;4.700;2023-05-10T16:00:28;9.57;;;6.82;;
8993;SDS011;4532;50.886;4.700;2023-05-10T16:02:55;8.32;;;6.03;;
8993;SDS011;4532;50.886;4.700;2023-05-10T16:05:23;9.82;;;6.35;;
8993;SDS011;4532;50.886;4.700;2023-05-10T16:07:53;10.20;;;6.28;;
8993;SDS011;4532;50.886;4.700;2023-05-10T16:10:25;8.60;;;5.45;;
8993;SDS011;4532;50.886;4.700;2023-05-10T16:12:59;9.13;;;5.57;;
8993;SDS011;4532;50.886;4.700;2023-05-10T16:15:27;10.73;;;5.80;;
8993;SDS011;4532;50.886;4.700;2023-05-10T16:17:55;8.23;;;5.10;;
8993;SDS011;4532;50.886;4.700;2023-05-10T16:20:23;10.25;;;5.30;;
8993;SDS011;4532;50.886;4.700;2023-05-10T16:22:50;8.90;;;4.55;;
8993;SDS011;4532;50.886;4.700;2023-05-10T16:25:25;9.52;;;4.90;;